Crosby, ND

7:48 PM CST on December 13, 2019 (GMT -0600)
Crosby

Weather History for KD50 - August, 2019

Change the Weather History Date:

Saturday, August 31, 2019

  Actual Average (WUND) Record (WUND)
Temperature  
Mean Temperature 63 °F -  
Max Temperature 78 °F - - (-1)
Min Temperature 48 °F - - (-1)
Degree Days  
Heating Degree Days 2    
Growing Degree Days 13 (Base 50)    
Moisture  
Dew Point 52 °F    
Average Humidity 70    
Maximum Humidity 100    
Minimum Humidity 34    
Precipitation  
Precipitation 0.00 in - - ()
Sea Level Pressure  
Sea Level Pressure 30.07 in    
Wind  
Wind Speed 10 mph (South)    
Max Wind Speed 16 mph    
Max Gust Speed 25 mph    
Visibility 10 miles    
Events      
Averages and records for this station are not official NWS values.
T = Trace of Precipitation, MM = Missing Value Source: NWS Daily Summary

Daily Weather History Graph

Daily Weather History Graph

Search for Another Location

Airport or City:

Astronomy

Aug. 31, 2019 Rise Set
Actual Time 7:08 AM CDT 8:37 PM CDT
Civil Twilight 6:35 AM CDT 9:10 PM CDT
Nautical Twilight 5:54 AM CDT 9:50 PM CDT
Astronomical Twilight 5:11 AM CDT 10:34 PM CDT
Moon 8:29 AM CDT (8/31) 9:45 PM CDT (8/31)
Length of Visible Light 14h 35m
Length of Day
13h 29m
New Moon, 3% of the Moon is Illuminated
Aug 31
New Moon
Sep 5
First Quarter
Sep 13
Full
Sep 21
Last Quarter
Sep 28
New

Hourly Weather History & Observations

Time (CDT) Temp. Dew Point Humidity Pressure Visibility Wind Dir Wind Speed Gust Speed Precip Events Conditions
12:15 AM 57.2 °F 46.4 °F 67% 30.13 in 10.0 mi SSE 15.0 mph - N/A   Scattered Clouds
12:35 AM 57.2 °F 46.4 °F 67% 30.13 in 10.0 mi SSE 15.0 mph 25.3 mph N/A   Mostly Cloudy
12:55 AM 57.2 °F 46.4 °F 67% 30.13 in 10.0 mi South 12.7 mph - N/A   Overcast
1:15 AM 57.2 °F 48.2 °F 72% 30.13 in 10.0 mi South 13.8 mph - N/A   Overcast
1:35 AM 57.2 °F 48.2 °F 72% 30.13 in 10.0 mi South 11.5 mph - N/A   Mostly Cloudy
1:55 AM 57.2 °F 50.0 °F 77% 30.13 in 10.0 mi South 10.4 mph - N/A   Mostly Cloudy
2:15 AM 55.4 °F 51.8 °F 88% 30.13 in 10.0 mi SSW 8.1 mph - N/A   Overcast
2:35 AM 55.4 °F 51.8 °F 88% 30.13 in 10.0 mi SSW 5.8 mph - N/A   Overcast
2:55 AM 55.4 °F 51.8 °F 88% 30.13 in 10.0 mi SW 4.6 mph - N/A   Overcast
3:15 AM 55.4 °F 51.8 °F 88% 30.13 in 10.0 mi SSW 5.8 mph - N/A   Overcast
3:35 AM 53.6 °F 53.6 °F 100% 30.13 in 10.0 mi South 5.8 mph - N/A   Mostly Cloudy
3:55 AM 51.8 °F 51.8 °F 100% 30.12 in 10.0 mi South 5.8 mph - N/A   Scattered Clouds
4:15 AM 48.2 °F 48.2 °F 100% 30.12 in 10.0 mi Calm Calm - N/A   Mostly Cloudy
4:35 AM 50.0 °F 50.0 °F 100% 30.12 in 10.0 mi South 6.9 mph - N/A   Overcast
4:55 AM 50.0 °F 50.0 °F 100% 30.12 in 10.0 mi SSE 3.5 mph - N/A   Scattered Clouds
5:15 AM 48.2 °F 48.2 °F 100% 30.11 in 10.0 mi South 5.8 mph - N/A   Partly Cloudy
5:35 AM 48.2 °F 48.2 °F 100% 30.11 in 10.0 mi South 6.9 mph - N/A   Clear
5:55 AM 48.2 °F 48.2 °F 100% 30.11 in 10.0 mi SSW 8.1 mph - N/A   Partly Cloudy
6:15 AM 50.0 °F 50.0 °F 100% 30.11 in 10.0 mi SSW 10.4 mph - N/A   Clear
6:35 AM 50.0 °F 50.0 °F 100% 30.12 in 10.0 mi SSW 8.1 mph - N/A   Mostly Cloudy
6:55 AM 51.8 °F 51.8 °F 100% 30.12 in 10.0 mi SSW 8.1 mph - N/A   Overcast
7:15 AM 51.8 °F 51.8 °F 100% 30.12 in 10.0 mi South 6.9 mph - N/A   Overcast
7:35 AM 51.8 °F 51.8 °F 100% 30.12 in 10.0 mi Calm Calm - N/A   Mostly Cloudy
7:55 AM 50.0 °F 50.0 °F 100% 30.13 in 10.0 mi Calm Calm - N/A   Clear
8:15 AM 50.0 °F 50.0 °F 100% 30.13 in 10.0 mi Calm Calm - N/A   Clear
8:35 AM 53.6 °F 53.6 °F 100% 30.13 in 10.0 mi ESE 4.6 mph - N/A   Clear
8:55 AM 55.4 °F 53.6 °F 94% 30.12 in 10.0 mi SSE 5.8 mph - N/A   Clear
9:15 AM 57.2 °F 53.6 °F 88% 30.12 in 10.0 mi South 8.1 mph - N/A   Clear
9:35 AM 59.0 °F 53.6 °F 82% 30.12 in 10.0 mi South 11.5 mph - N/A   Clear
9:55 AM 62.6 °F 53.6 °F 72% 30.12 in 10.0 mi SSW 12.7 mph - N/A   Clear
10:15 AM 62.6 °F 53.6 °F 72% 30.11 in 10.0 mi South 12.7 mph 18.4 mph N/A   Clear
10:35 AM 64.4 °F 53.6 °F 68% 30.11 in 10.0 mi South 11.5 mph - N/A   Clear
10:55 AM 66.2 °F 51.8 °F 60% 30.11 in 10.0 mi SSW 11.5 mph - N/A   Clear
11:15 AM 66.2 °F 53.6 °F 64% 30.10 in 10.0 mi South 13.8 mph - N/A   Clear
11:35 AM 68.0 °F 53.6 °F 60% 30.10 in 10.0 mi South 9.2 mph - N/A   Clear
11:55 AM 69.8 °F 53.6 °F 56% 30.09 in 10.0 mi SSW 12.7 mph - N/A   Clear
12:15 PM 71.6 °F 53.6 °F 53% 30.09 in 10.0 mi South 10.4 mph - N/A   Clear
12:35 PM 71.6 °F 51.8 °F 50% 30.08 in 10.0 mi South 10.4 mph - N/A   Clear
12:55 PM 73.4 °F 51.8 °F 47% 30.08 in 10.0 mi South 12.7 mph - N/A   Clear
1:15 PM 73.4 °F 51.8 °F 47% 30.07 in 10.0 mi South 13.8 mph - N/A   Clear
1:35 PM 73.4 °F 51.8 °F 47% 30.07 in 10.0 mi South 12.7 mph - N/A   Clear
1:55 PM 75.2 °F 50.0 °F 41% 30.06 in 10.0 mi SSW 12.7 mph 19.6 mph N/A   Clear
2:15 PM 75.2 °F 50.0 °F 41% 30.06 in 10.0 mi South 10.4 mph 18.4 mph N/A   Clear
2:35 PM 77.0 °F 50.0 °F 39% 30.05 in 10.0 mi South 11.5 mph - N/A   Clear
2:55 PM 77.0 °F 50.0 °F 39% 30.04 in 10.0 mi South 12.7 mph - N/A   Clear
3:15 PM 77.0 °F 48.2 °F 36% 30.03 in 10.0 mi SSW 13.8 mph 20.7 mph N/A   Clear
3:35 PM 77.0 °F 50.0 °F 39% 30.03 in 10.0 mi South 11.5 mph 18.4 mph N/A   Clear
3:55 PM 78.8 °F 50.0 °F 36% 30.02 in 10.0 mi SSW 13.8 mph 20.7 mph N/A   Clear
4:15 PM 78.8 °F 50.0 °F 36% 30.01 in 9.0 mi South 16.1 mph 21.9 mph N/A   Clear
4:35 PM 78.8 °F 48.2 °F 34% 30.01 in 9.0 mi SW 13.8 mph 19.6 mph N/A   Clear
4:55 PM 78.8 °F 48.2 °F 34% 30.01 in 10.0 mi SW 10.4 mph 20.7 mph N/A   Clear
5:15 PM 78.8 °F 50.0 °F 36% 30.01 in 10.0 mi SW 11.5 mph 18.4 mph N/A   Clear
5:35 PM 77.0 °F 51.8 °F 41% 30.00 in 10.0 mi SSW 10.4 mph 17.3 mph N/A   Mostly Cloudy
5:55 PM 77.0 °F 51.8 °F 41% 30.00 in 10.0 mi SSW 10.4 mph - N/A   Overcast
6:15 PM 75.2 °F 51.8 °F 44% 30.00 in 10.0 mi South 10.4 mph - N/A   Overcast
6:35 PM 75.2 °F 51.8 °F 44% 30.00 in 10.0 mi South 9.2 mph - N/A   Overcast
6:55 PM 75.2 °F 53.6 °F 47% 29.99 in 10.0 mi SW 8.1 mph - N/A   Mostly Cloudy
7:15 PM 75.2 °F 53.6 °F 47% 29.99 in 10.0 mi South 8.1 mph - N/A   Overcast
7:35 PM 73.4 °F 53.6 °F 50% 29.99 in 10.0 mi South 6.9 mph - N/A   Overcast
7:55 PM 73.4 °F 55.4 °F 53% 29.98 in 10.0 mi South 8.1 mph - N/A   Overcast
8:15 PM 73.4 °F 55.4 °F 53% 29.98 in 10.0 mi South 6.9 mph - N/A   Overcast
8:35 PM 71.6 °F 55.4 °F 57% 29.98 in 9.0 mi South 9.2 mph - N/A   Overcast
8:55 PM 69.8 °F 57.2 °F 64% 29.98 in 10.0 mi South 10.4 mph - N/A   Overcast
9:15 PM 68.0 °F 57.2 °F 68% 29.98 in 10.0 mi South 8.1 mph - N/A   Overcast
9:35 PM 66.2 °F 57.2 °F 73% 29.98 in 10.0 mi South 10.4 mph - N/A   Mostly Cloudy
9:55 PM 64.4 °F 57.2 °F 77% 29.99 in 10.0 mi South 10.4 mph - N/A   Clear
10:15 PM 62.6 °F 59.0 °F 88% 29.99 in 10.0 mi South 9.2 mph - N/A   Clear
10:35 PM 60.8 °F 57.2 °F 88% 29.99 in 10.0 mi SSW 10.4 mph - N/A   Clear
10:55 PM 60.8 °F 59.0 °F 94% 29.99 in 10.0 mi SSW 10.4 mph - N/A   Clear
11:15 PM 60.8 °F 59.0 °F 94% 29.99 in 10.0 mi SSW 10.4 mph - N/A   Clear
11:35 PM 60.8 °F 59.0 °F 94% 29.99 in 10.0 mi SSW 10.4 mph - N/A   Mostly Cloudy
11:55 PM 60.8 °F 59.0 °F 94% 29.99 in 10.0 mi SSW 10.4 mph - N/A   Mostly Cloudy